Retrouvez également nos données météorologiques sur:

UK Metoffice

Weather Underground

AWEKAS

Citizen Weather Observer Program (CWOP)



Rapports METAR à proximité

   
LFOJ - Montargis
Mise à jour: 31-10-2020 11:00
Brouillard, Nuageux  
Brouillard, Nuageux  
   Vent: Sud 14.8 km/h
Vent: Sud 14.8 km/h
Température: 11°C
Point de rosée: 10°C
Humidité: 94%
Pression atmosphérique: 1019 hPa
Nuages: Nuageux
Visibilité: 5 km
Nébulosité: Nuageux 200 ft
LFOJ 311000Z AUTO 17008KT 5000 BR OVC002 11/10 Q1019 BECMG SCT015
LFOJ - Orléans
Mise à jour: 31-10-2020 11:00
Brouillard, Nuageux  
Brouillard, Nuageux  
   Vent: Sud 14.8 km/h
Vent: Sud 14.8 km/h
Température: 11°C
Point de rosée: 10°C
Humidité: 94%
Pression atmosphérique: 1019 hPa
Nuages: Nuageux
Visibilité: 5 km
Nébulosité: Nuageux 200 ft
LFOJ 311000Z AUTO 17008KT 5000 BR OVC002 11/10 Q1019 BECMG SCT015
LFQB - Sens
Mise à jour: 31-10-2020 11:00
Ciel dégagé  
Ciel dégagé  
   Vent: Sud 20.4 km/h
Vent: Sud 20.4 km/h
Température: 14°C
Point de rosée: 10°C
Humidité: 77%
Pression atmosphérique: 1021 hPa
Visibilité: More than 10 km
Nébulosité: Ciel dégagé
LFQB 311000Z AUTO 17011KT CAVOK 14/10 Q1021
LFQB - Auxerre
Mise à jour: 31-10-2020 11:00
Ciel dégagé  
Ciel dégagé  
   Vent: Sud 20.4 km/h
Vent: Sud 20.4 km/h
Température: 14°C
Point de rosée: 10°C
Humidité: 77%
Pression atmosphérique: 1021 hPa
Visibilité: More than 10 km
Nébulosité: Ciel dégagé
LFQB 311000Z AUTO 17011KT CAVOK 14/10 Q1021
LFPO - Paris
Mise à jour: 31-10-2020 11:00
Partiellement nuageux  
Partiellement nuageux  
   Vent: Sud 14.8 km/h
Vent: Sud 14.8 km/h
Température: 13°C
Point de rosée: 10°C
Humidité: 82%
Pression atmosphérique: 1019 hPa
Nuages: Partiellement nuageux
Visibilité: More than 10 km
Nébulosité: Peu de nuages 1000 ft,
Partiellement nuageux 16000 ft
LFPO 311000Z 18008KT 140V210 9999 FEW010 SCT160 13/10 Q1019 NOSIG
LFLX - Bourges
Mise à jour: 31-10-2020 11:00
Ciel dégagé  
Ciel dégagé  
   Vent: Sud 16.7 km/h
Vent: Sud 16.7 km/h
Température: 17°C
Point de rosée: 10°C
Humidité: 64%
Pression atmosphérique: 1021 hPa
Visibilité: More than 10 km
Nébulosité: Ciel dégagé
LFLX 311000Z AUTO 19009KT CAVOK 17/10 Q1021 NOSIG

Original script by  Saratoga-weather.org Adapted for the template by  Weerstation Leuven